Time;durP1;ratioP1;P1;durP2;ratioP2;P2;SDS_P1;SDS_P2;PMS_P1;PMS_P2;Temp;Humidity;BMP_temperature;BMP_pressure;BME280_temperature;BME280_humidity;BME280_pressure;Samples;Min_cycle;Max_cycle;Signal;HPM_P1;HPM_P2
2021/09/23 06:16:06;;;;;;;11.37;9.47;;;9.70;99.90;;;;;;5094935;22;20504;-83
2021/09/23 06:18:34;;;;;;;21.23;11.80;;;9.80;99.90;;;;;;5090113;28;20450;-83
2021/09/23 06:21:02;;;;;;;14.60;12.30;;;9.80;99.90;;;;;;5090882;28;20555;-83
2021/09/23 06:23:29;;;;;;;14.33;12.90;;;9.90;99.90;;;;;;5090921;28;20510;-83
2021/09/23 06:25:57;;;;;;;13.43;12.10;;;10.00;99.90;;;;;;5086390;28;20475;-83
2021/09/23 07:35:13;;;;;;;;;;;;;;;;;;;;;
2021/09/23 07:51:16;;;;;;;10.13;5.60;;;13.60;99.90;;;;;;4821213;29;20473;-84
2021/09/23 07:53:44;;;;;;;9.40;5.80;;;13.70;99.90;;;;;;4901003;29;20466;-84
2021/09/23 07:56:11;;;;;;;6.27;5.77;;;13.80;99.90;;;;;;5002287;28;20481;-84
2021/09/23 07:58:38;;;;;;;6.30;5.70;;;13.80;99.90;;;;;;5051963;28;20451;-84
2021/09/23 08:01:05;;;;;;;4.97;4.47;;;13.90;99.90;;;;;;5053133;28;20438;-83
2021/09/23 08:03:31;;;;;;;4.87;4.37;;;13.90;99.90;;;;;;5053112;28;20464;-85
2021/09/23 08:05:58;;;;;;;6.43;4.90;;;14.20;99.90;;;;;;5053762;28;20455;-84
2021/09/23 08:08:25;;;;;;;5.20;4.77;;;14.30;99.90;;;;;;5057203;28;20967;-83
2021/09/23 08:10:53;;;;;;;5.30;4.40;;;14.40;99.90;;;;;;5067595;28;20459;-83
2021/09/23 08:13:20;;;;;;;5.37;4.87;;;14.40;99.90;;;;;;5059426;28;20446;-83
2021/09/23 08:15:47;;;;;;;4.37;3.97;;;14.70;99.90;;;;;;5051824;28;20480;-82
2021/09/23 08:18:15;;;;;;;4.27;3.87;;;14.70;99.90;;;;;;5062490;28;20477;-83
2021/09/23 08:20:45;;;;;;;4.17;3.60;;;14.80;99.90;;;;;;5070462;28;20988;-84
2021/09/23 08:23:11;;;;;;;5.03;4.10;;;14.90;99.90;;;;;;5068646;28;20468;-84
2021/09/23 08:25:38;;;;;;;3.73;3.43;;;14.90;99.90;;;;;;5050868;28;20903;-84
2021/09/23 08:28:07;;;;;;;5.00;3.53;;;15.00;99.90;;;;;;5050016;28;20455;-83
2021/09/23 08:30:34;;;;;;;3.50;3.20;;;15.10;99.90;;;;;;5050875;28;20481;-82
2021/09/23 08:33:01;;;;;;;4.37;3.97;;;15.20;99.90;;;;;;5050673;28;20454;-84
2021/09/23 08:35:28;;;;;;;3.63;3.33;;;15.30;99.90;;;;;;5050308;28;20525;-84
2021/09/23 08:37:55;;;;;;;5.00;4.40;;;15.40;99.90;;;;;;5050585;28;20461;-83
2021/09/23 08:40:22;;;;;;;6.13;4.37;;;15.40;99.90;;;;;;5052143;28;20452;-84
2021/09/23 08:42:49;;;;;;;6.40;4.60;;;15.50;99.90;;;;;;5061752;28;20451;-84
2021/09/23 08:45:33;;;;;;;;;;;;;;;;;;;;;
2021/09/23 09:21:45;;;;;;;2.77;2.57;;;16.90;99.90;;;;;;6107864;23;1337353;-86
2021/09/23 09:25:15;;;;;;;3.40;2.80;;;17.00;99.60;;;;;;6150386;23;20184;-86
2021/09/23 11:12:00;;;;;;;3.70;2.20;;;25.10;74.50;;;;;;6118096;23;20455;-84
2021/09/23 11:14:43;;;;;;;2.07;1.97;;;25.60;73.20;;;;;;6152095;23;20463;-85
2021/09/23 11:43:22;;;;;;;2.17;2.03;;;29.30;57.20;;;;;;5951356;24;20801;-84
2021/09/23 12:17:51;;;;;;;;;;;;;;;;;;;;;
2021/09/23 12:27:12;;;;;;;2.47;2.27;;;31.70;48.80;;;;;;6151121;23;20901;-84
2021/09/23 12:36:21;;;;;;;2.13;2.03;;;32.70;46.10;;;;;;5910344;24;20457;-87
2021/09/23 12:45:58;;;;;;;2.10;2.00;;;33.20;44.40;;;;;;5848237;24;20562;-85
2021/09/23 12:48:29;;;;;;;2.30;2.20;;;33.50;43.20;;;;;;6099025;23;20424;-84
2021/09/23 13:01:34;;;;;;;2.23;2.07;;;31.50;43.70;;;;;;6151824;23;20395;-85
2021/09/23 13:11:50;;;;;;;;;;;;;;;;;;;;;
2021/09/23 13:39:11;;;;;;;2.23;2.13;;;31.90;46.80;;;;;;6129030;23;20936;-85
2021/09/23 13:42:29;;;;;;;3.00;2.80;;;32.20;45.70;;;;;;6154101;23;20427;-89
2021/09/23 14:05:01;;;;;;;3.60;3.00;;;29.10;51.90;;;;;;5774087;24;20485;-85
2021/09/23 14:10:39;;;;;;;3.43;3.10;;;28.30;53.90;;;;;;6124222;23;20910;-87
2021/09/23 14:13:16;;;;;;;3.37;2.90;;;28.00;54.50;;;;;;6125500;23;20429;-86
2021/09/23 14:15:43;;;;;;;3.37;3.07;;;27.50;55.60;;;;;;6128716;23;20490;-85
2021/09/23 14:18:10;;;;;;;3.70;3.40;;;26.90;56.80;;;;;;6134762;23;20541;-86
2021/09/23 15:39:58;;;;;;;1.90;1.80;;;22.20;51.60;;;;;;6157266;23;20485;-84
2021/09/23 15:42:32;;;;;;;2.23;2.03;;;22.20;51.00;;;;;;6163652;23;20402;-84
2021/09/23 15:44:59;;;;;;;3.27;2.97;;;22.10;50.60;;;;;;6162025;23;20979;-84
2021/09/23 15:47:34;;;;;;;2.30;2.10;;;22.10;51.30;;;;;;6136784;23;20425;-84
2021/09/23 15:50:21;;;;;;;2.50;2.30;;;22.00;51.50;;;;;;6133807;23;20485;-85
2021/09/23 15:52:50;;;;;;;2.70;2.50;;;22.00;50.80;;;;;;6133024;23;20419;-85
2021/09/23 15:55:21;;;;;;;2.07;1.97;;;22.00;51.70;;;;;;6135769;23;20426;-84
2021/09/23 15:58:46;;;;;;;;;;;;;;;;;;;;;
2021/09/23 16:12:26;;;;;;;2.43;2.17;;;22.00;50.90;;;;;;6007874;23;20426;-86
2021/09/23 16:18:48;;;;;;;2.80;2.47;;;21.80;51.20;;;;;;5969359;24;20534;-85
2021/09/23 16:24:52;;;;;;;2.07;1.93;;;21.70;52.10;;;;;;5887518;24;20410;-84
2021/09/23 16:27:19;;;;;;;3.37;2.73;;;21.60;51.40;;;;;;6114567;23;20795;-85
2021/09/23 16:29:46;;;;;;;2.47;2.27;;;21.50;51.20;;;;;;6132200;23;20408;-84
2021/09/23 16:32:23;;;;;;;;;;;;;;;;;;;;;
2021/09/23 16:56:02;;;;;;;2.67;2.30;;;21.00;55.10;;;;;;5963878;23;20493;-84
2021/09/23 16:59:10;;;;;;;3.87;2.10;;;21.00;55.80;;;;;;6068430;23;20786;-86
2021/09/23 17:19:01;;;;;;;;;;;;;;;;;;;;;
2021/09/23 17:22:00;;;;;;;;;;;;;;;;;;;;;
2021/09/23 17:24:33;;;;;;;3.50;3.20;;;20.10;58.60;;;;;;6067284;23;20446;-88
2021/09/23 17:42:01;;;;;;;;;;;;;;;;;;;;;
2021/09/23 18:51:15;;;;;;;3.40;3.20;;;16.80;82.90;;;;;;6163642;23;20479;-83
2021/09/23 18:54:06;;;;;;;3.87;3.57;;;16.80;83.40;;;;;;6164349;23;20374;-83
2021/09/23 18:57:11;;;;;;;;;;;;;;;;;;;;;
2021/09/23 18:59:41;;;;;;;3.77;3.57;;;16.80;84.40;;;;;;6185355;23;20445;-83
2021/09/23 19:02:09;;;;;;;4.40;3.90;;;16.80;84.80;;;;;;6198239;23;20392;-82
2021/09/23 19:04:37;;;;;;;3.77;3.47;;;16.90;84.90;;;;;;6194500;23;20413;-83
2021/09/23 19:07:13;;;;;;;4.17;3.87;;;17.00;84.70;;;;;;6193090;23;20432;-82
2021/09/23 19:42:07;;;;;;;3.87;3.47;;;16.40;91.20;;;;;;5824341;24;20195;-83
2021/09/23 19:44:33;;;;;;;4.63;4.20;;;16.40;91.30;;;;;;6141626;23;20425;-84
2021/09/23 19:47:00;;;;;;;4.13;3.83;;;16.40;91.50;;;;;;6193385;23;20431;-83
2021/09/23 19:49:30;;;;;;;4.47;4.07;;;16.30;91.90;;;;;;6195465;23;20416;-83
2021/09/23 19:51:57;;;;;;;4.30;3.90;;;16.30;92.20;;;;;;6199126;23;20387;-84
2021/09/23 19:54:24;;;;;;;4.33;3.93;;;16.30;92.40;;;;;;6195171;23;20832;-84
2021/09/23 19:56:51;;;;;;;4.20;3.90;;;16.20;92.60;;;;;;6193699;23;20513;-83
2021/09/23 19:59:21;;;;;;;4.53;4.13;;;16.20;92.70;;;;;;6193627;23;20458;-85
2021/09/23 20:01:48;;;;;;;6.50;5.93;;;16.10;92.90;;;;;;6195693;23;20402;-83
2021/09/23 20:04:15;;;;;;;7.17;4.23;;;16.10;93.20;;;;;;6194970;23;20417;-82
2021/09/23 20:06:43;;;;;;;4.97;4.50;;;16.00;93.50;;;;;;6194178;23;20501;-82
2021/09/23 20:09:11;;;;;;;4.37;3.97;;;16.00;93.70;;;;;;6194147;23;20478;-83
2021/09/23 20:11:38;;;;;;;4.90;4.60;;;16.00;94.00;;;;;;6194045;23;20506;-83
2021/09/23 20:14:05;;;;;;;5.43;4.83;;;15.90;94.10;;;;;;6194084;23;20482;-83
2021/09/23 20:16:33;;;;;;;4.47;4.07;;;15.80;94.60;;;;;;6193267;23;20446;-82
2021/09/23 20:19:00;;;;;;;4.83;4.43;;;15.60;95.40;;;;;;6192856;23;20531;-82
2021/09/23 20:21:27;;;;;;;4.30;4.00;;;15.40;96.10;;;;;;6193601;23;20906;-83
2021/09/23 20:23:53;;;;;;;5.30;4.77;;;15.40;96.60;;;;;;6192221;23;20716;-82
2021/09/23 20:26:21;;;;;;;7.20;4.97;;;15.40;96.90;;;;;;6192986;23;20484;-83
2021/09/23 20:28:48;;;;;;;4.97;4.53;;;15.50;97.00;;;;;;6193113;23;20430;-81
2021/09/23 20:31:14;;;;;;;4.60;4.20;;;15.50;97.20;;;;;;6192839;23;20420;-82
2021/09/23 20:33:43;;;;;;;4.50;4.10;;;15.50;97.40;;;;;;6194126;23;20424;-83
2021/09/23 20:36:09;;;;;;;5.23;3.93;;;15.50;97.80;;;;;;6193818;23;20441;-82
